createdAt,value
2018-11-28T00:02:07.294Z,40.70
2018-11-28T00:04:42.930Z,46.45
2018-11-28T00:07:28.592Z,39.78
2018-11-28T00:16:44.846Z,48.87
2018-11-28T00:32:27.739Z,48.25
2018-11-28T00:35:16.211Z,51.63
2018-11-28T00:57:36.193Z,46.98
2018-11-28T01:00:36.045Z,45.52
2018-11-28T01:03:06.189Z,50.73
2018-11-28T01:05:34.950Z,40.90
2018-11-28T01:08:09.469Z,42.20
2018-11-28T01:10:38.446Z,44.33
2018-11-28T01:13:07.174Z,44.18
2018-11-28T01:15:35.939Z,47.90
2018-11-28T01:18:05.745Z,49.67
2018-11-28T01:20:34.418Z,42.85
2018-11-28T01:23:03.201Z,42.00
2018-11-28T01:25:31.807Z,37.15
2018-11-28T01:28:00.581Z,50.67
2018-11-28T01:30:29.797Z,39.23
2018-11-28T01:32:59.285Z,38.23
2018-11-28T01:35:28.681Z,38.28
2018-11-28T01:37:58.500Z,43.75
2018-11-28T01:40:27.457Z,35.63
2018-11-28T01:42:56.976Z,41.30
2018-11-28T01:45:25.943Z,31.37
2018-11-28T01:47:55.949Z,36.83
2018-11-28T01:50:25.604Z,39.42
2018-11-28T01:52:55.244Z,43.50
2018-11-28T01:55:24.548Z,42.55
2018-11-28T01:57:59.824Z,48.38
2018-11-28T02:00:28.503Z,38.17
2018-11-28T02:03:00.198Z,42.85
2018-11-28T02:05:29.464Z,30.45
2018-11-28T02:07:58.761Z,40.63
2018-11-28T02:10:27.415Z,32.15
2018-11-28T02:12:56.094Z,35.60
2018-11-28T02:15:27.059Z,36.48
2018-11-28T02:17:57.358Z,33.78
2018-11-28T02:20:26.017Z,41.02
2018-11-28T02:22:54.663Z,34.23
2018-11-28T02:25:23.928Z,36.35
2018-11-28T02:27:52.857Z,30.65
2018-11-28T02:30:29.053Z,31.82
2018-11-28T02:32:58.974Z,28.40
2018-11-28T02:35:28.691Z,36.03
2018-11-28T02:37:58.773Z,38.30
2018-11-28T02:40:27.851Z,34.80
2018-11-28T02:42:57.836Z,31.45
2018-11-28T02:45:27.931Z,36.40
2018-11-28T02:47:57.343Z,32.55
2018-11-28T02:50:26.942Z,39.25
2018-11-28T02:52:56.712Z,45.98
2018-11-28T02:55:25.668Z,33.30
2018-11-28T03:10:54.521Z,40.85
2018-11-28T03:13:38.012Z,31.62
2018-11-28T03:16:20.167Z,40.33
2018-11-28T03:18:54.833Z,34.35
2018-11-28T03:21:30.875Z,36.60
2018-11-28T03:24:05.629Z,31.30
2018-11-28T03:26:49.191Z,33.48
2018-11-28T03:29:27.138Z,36.73
2018-11-28T03:31:55.379Z,30.62
2018-11-28T03:34:23.692Z,36.88
2018-11-28T03:36:52.173Z,30.05
2018-11-28T03:39:20.502Z,27.75
2018-11-28T03:41:48.887Z,27.90
2018-11-28T03:44:17.215Z,31.37
2018-11-28T03:46:45.453Z,35.20
2018-11-28T03:49:13.747Z,25.17
2018-11-28T03:51:42.109Z,29.40
2018-11-28T03:54:10.498Z,39.48
2018-11-28T03:56:38.781Z,28.00
2018-11-28T03:59:07.086Z,29.32
2018-11-28T04:01:35.379Z,36.33
2018-11-28T04:04:03.703Z,40.80
2018-11-28T04:06:31.904Z,35.33
2018-11-28T04:09:00.231Z,31.02
2018-11-28T04:11:28.748Z,32.38
2018-11-28T04:13:56.994Z,30.45
2018-11-28T04:16:25.228Z,28.90
2018-11-28T04:18:53.487Z,34.83
2018-11-28T04:21:21.714Z,30.82
2018-11-28T04:23:50.088Z,30.12
2018-11-28T04:26:18.381Z,34.18
2018-11-28T04:28:46.625Z,33.18
2018-11-28T04:31:14.916Z,36.28
2018-11-28T04:33:43.222Z,31.35
2018-11-28T04:36:11.536Z,30.55
2018-11-28T04:38:40.899Z,36.30
2018-11-28T04:41:09.162Z,41.80
2018-11-28T04:43:37.484Z,32.15
2018-11-28T04:46:06.250Z,29.72
2018-11-28T04:48:34.704Z,39.50
2018-11-28T04:51:03.223Z,35.50
2018-11-28T04:53:32.023Z,40.85
2018-11-28T04:56:00.256Z,31.33
2018-11-28T04:58:28.730Z,37.38
2018-11-28T05:00:58.095Z,36.65
2018-11-28T05:03:30.226Z,33.08
2018-11-28T05:05:58.535Z,37.95
2018-11-28T05:08:26.995Z,37.13
2018-11-28T05:10:55.397Z,27.75
2018-11-28T05:13:23.751Z,35.85
2018-11-28T05:15:52.049Z,36.50
2018-11-28T05:18:20.526Z,39.92
2018-11-28T05:20:48.882Z,34.83
2018-11-28T05:23:17.098Z,31.87
2018-11-28T05:25:45.614Z,33.02
2018-11-28T05:28:13.849Z,30.45
2018-11-28T05:30:42.273Z,32.10
2018-11-28T05:33:10.515Z,30.92
2018-11-28T05:35:39.878Z,34.60
2018-11-28T05:38:13.758Z,36.83
2018-11-28T05:40:43.236Z,34.90
2018-11-28T05:43:11.628Z,37.17
2018-11-28T05:45:39.943Z,38.80
2018-11-28T05:48:08.238Z,43.50
2018-11-28T05:50:36.754Z,34.78
2018-11-28T05:53:05.075Z,39.40
2018-11-28T05:55:33.726Z,36.38
2018-11-28T05:58:02.716Z,33.83
2018-11-28T06:00:35.929Z,35.60
2018-11-28T06:03:05.901Z,38.35
2018-11-28T06:05:34.354Z,32.83
2018-11-28T06:08:02.683Z,42.03
2018-11-28T06:10:31.172Z,39.60
2018-11-28T06:12:59.477Z,39.20
2018-11-28T06:15:27.841Z,33.33
2018-11-28T06:17:56.206Z,43.15
2018-11-28T06:20:24.564Z,32.93
2018-11-28T06:22:53.016Z,38.30
2018-11-28T06:25:21.613Z,40.50
2018-11-28T06:27:56.165Z,39.63
2018-11-28T06:30:24.717Z,35.52
2018-11-28T06:32:54.328Z,47.27
2018-11-28T06:35:22.579Z,32.75
2018-11-28T06:37:52.100Z,36.77
2018-11-28T06:40:24.335Z,40.85
2018-11-28T06:42:51.656Z,41.33
2018-11-28T06:45:23.256Z,34.67
2018-11-28T06:47:52.941Z,40.95
2018-11-28T06:50:21.518Z,28.40
2018-11-28T06:52:51.174Z,28.90
2018-11-28T06:55:22.869Z,33.28
2018-11-28T06:57:51.548Z,32.90
2018-11-28T07:00:21.531Z,41.45
2018-11-28T07:02:51.443Z,38.10
2018-11-28T07:05:27.050Z,41.45
2018-11-28T07:07:57.833Z,38.85
2018-11-28T07:10:27.506Z,42.27
2018-11-28T07:12:58.267Z,42.13
2018-11-28T07:15:28.032Z,35.92
2018-11-28T07:21:00.877Z,40.63
2018-11-28T07:23:30.892Z,46.80
2018-11-28T07:26:01.158Z,42.48
2018-11-28T07:28:31.932Z,32.00
2018-11-28T07:31:02.385Z,41.90
2018-11-28T07:33:31.132Z,44.55
2018-11-28T07:35:59.858Z,39.88
2018-11-28T07:38:28.306Z,42.45
2018-11-28T07:40:56.913Z,48.17
2018-11-28T07:43:25.213Z,42.15
2018-11-28T07:45:53.728Z,39.08
2018-11-28T07:48:22.781Z,40.08
2018-11-28T07:50:51.289Z,42.60
2018-11-28T07:53:19.553Z,37.35
2018-11-28T07:55:47.862Z,38.45
2018-11-28T07:58:16.143Z,35.68
2018-11-28T08:00:45.934Z,36.40
2018-11-28T08:03:14.303Z,66.77
2018-11-28T08:05:42.630Z,38.53
2018-11-28T08:08:11.553Z,50.15
2018-11-28T08:10:40.269Z,35.75
2018-11-28T08:13:09.927Z,40.30
2018-11-28T08:15:39.890Z,41.35
2018-11-28T08:18:08.957Z,41.23
2018-11-28T08:20:37.537Z,40.28
2018-11-28T08:23:06.004Z,44.77
2018-11-28T08:25:34.796Z,42.45
2018-11-28T08:28:03.240Z,41.95
2018-11-28T08:30:31.929Z,43.83
2018-11-28T08:33:00.415Z,44.30
2018-11-28T08:35:29.014Z,42.50
2018-11-28T08:37:57.570Z,42.33
2018-11-28T08:40:26.580Z,39.98
2018-11-28T08:42:56.502Z,37.63
2018-11-28T08:45:25.009Z,36.17
2018-11-28T08:47:56.281Z,38.55
2018-11-28T08:50:34.807Z,36.40
2018-11-28T08:53:03.383Z,37.05
2018-11-28T08:55:31.850Z,37.67
2018-11-28T08:58:01.528Z,38.10
2018-11-28T09:00:31.091Z,38.45
2018-11-28T09:03:02.622Z,36.73
2018-11-28T09:05:31.198Z,37.70
2018-11-28T09:07:59.613Z,37.60
2018-11-28T09:10:28.674Z,36.83
2018-11-28T09:12:57.124Z,38.45
2018-11-28T09:15:31.892Z,37.15
2018-11-28T09:18:00.412Z,40.43
2018-11-28T09:20:28.974Z,40.52
2018-11-28T09:22:57.362Z,34.45
2018-11-28T09:25:25.790Z,37.03
2018-11-28T09:27:56.264Z,44.85
2018-11-28T09:30:38.064Z,37.83
2018-11-28T09:33:06.594Z,39.23
2018-11-28T09:35:34.898Z,36.70
2018-11-28T09:38:03.739Z,38.53
2018-11-28T09:40:32.120Z,35.83
2018-11-28T09:43:00.523Z,42.27
2018-11-28T09:45:29.596Z,33.28
2018-11-28T09:47:57.920Z,37.23
2018-11-28T09:50:26.749Z,44.03
2018-11-28T09:52:55.181Z,37.25
2018-11-28T09:55:26.640Z,37.13
2018-11-28T09:57:55.180Z,32.05
2018-11-28T10:00:24.982Z,41.10
2018-11-28T10:02:56.227Z,33.92
2018-11-28T10:05:27.307Z,40.67
2018-11-28T10:07:55.671Z,32.50
2018-11-28T10:10:24.031Z,32.08
2018-11-28T10:12:52.536Z,36.63
2018-11-28T10:15:22.116Z,35.33
2018-11-28T10:17:50.532Z,39.78
2018-11-28T10:20:19.290Z,36.30
2018-11-28T10:22:48.803Z,39.25
2018-11-28T10:25:21.607Z,38.25
2018-11-28T10:28:00.748Z,31.57
2018-11-28T10:30:37.690Z,37.28
2018-11-28T10:33:09.513Z,33.23
2018-11-28T10:35:39.161Z,36.88
2018-11-28T10:38:07.654Z,43.98
2018-11-28T10:40:36.574Z,51.68
2018-11-28T10:43:05.918Z,33.83
2018-11-28T10:45:34.764Z,41.23
2018-11-28T10:48:03.239Z,40.50
2018-11-28T10:50:31.652Z,41.13
2018-11-28T10:52:59.875Z,40.20
2018-11-28T10:55:28.376Z,33.45
2018-11-28T10:57:56.843Z,36.50
2018-11-28T11:00:33.846Z,38.88
2018-11-28T11:03:08.324Z,46.92
2018-11-28T11:05:42.369Z,42.60
2018-11-28T11:08:16.346Z,35.70
2018-11-28T11:10:50.310Z,40.40
2018-11-28T11:13:25.189Z,39.35
2018-11-28T11:15:54.565Z,35.50
2018-11-28T11:18:23.011Z,33.20
2018-11-28T11:20:51.842Z,34.73
2018-11-28T11:23:20.126Z,37.03
2018-11-28T11:25:48.648Z,39.20
2018-11-28T11:28:17.186Z,38.53
2018-11-28T11:30:45.759Z,37.93
2018-11-28T11:33:14.267Z,37.73
2018-11-28T11:35:42.706Z,35.55
2018-11-28T11:38:11.174Z,33.23
2018-11-28T11:40:39.561Z,31.87
2018-11-28T11:43:08.602Z,34.83
2018-11-28T11:45:36.924Z,37.10
2018-11-28T11:48:05.813Z,39.88
2018-11-28T11:50:34.318Z,35.58
2018-11-28T11:53:02.731Z,39.15
2018-11-28T11:55:31.058Z,36.73
2018-11-28T11:57:59.695Z,34.03
2018-11-28T12:00:28.209Z,31.45
2018-11-28T12:03:04.253Z,32.08
2018-11-28T12:05:32.557Z,29.77
2018-11-28T12:08:00.834Z,33.63
2018-11-28T12:10:29.165Z,33.02
2018-11-28T12:12:57.713Z,31.20
2018-11-28T12:15:26.250Z,33.38
2018-11-28T12:17:54.714Z,35.30
2018-11-28T12:20:36.342Z,34.18
2018-11-28T12:23:05.261Z,29.42
2018-11-28T12:25:33.920Z,26.57
2018-11-28T12:28:02.399Z,31.68
2018-11-28T12:30:30.803Z,28.98
2018-11-28T12:32:59.097Z,31.82
2018-11-28T12:35:27.414Z,26.02
2018-11-28T12:37:55.885Z,29.20
2018-11-28T12:40:24.360Z,27.65
2018-11-28T12:42:53.274Z,29.35
2018-11-28T12:45:21.903Z,30.05
2018-11-28T12:47:50.634Z,29.57
2018-11-28T12:50:26.241Z,30.52
2018-11-28T12:52:56.477Z,26.20
2018-11-28T12:55:25.197Z,30.12
2018-11-28T12:57:54.367Z,31.05
2018-11-28T13:00:27.169Z,28.75
2018-11-28T13:02:55.557Z,31.80
2018-11-28T13:05:27.278Z,27.00
2018-11-28T13:07:55.610Z,31.45
2018-11-28T13:10:29.745Z,32.20
2018-11-28T13:12:58.032Z,28.45
2018-11-28T13:15:26.735Z,23.42
2018-11-28T13:17:55.157Z,28.35
2018-11-28T13:20:23.598Z,25.23
2018-11-28T13:22:54.233Z,23.60
2018-11-28T13:25:26.058Z,22.05
2018-11-28T13:27:54.764Z,27.45
2018-11-28T13:30:24.575Z,23.80
2018-11-28T13:32:54.803Z,25.52
2018-11-28T13:35:26.276Z,26.73
2018-11-28T13:38:01.085Z,22.13
2018-11-28T13:40:29.666Z,23.32
2018-11-28T13:42:58.014Z,27.50
2018-11-28T13:45:30.243Z,23.00
2018-11-28T13:47:58.589Z,29.35
2018-11-28T13:50:27.001Z,24.37
2018-11-28T13:52:56.584Z,25.30
2018-11-28T13:55:38.518Z,24.15
2018-11-28T13:58:02.517Z,22.40
2018-11-28T14:00:30.859Z,19.87
2018-11-28T14:02:59.187Z,22.35
2018-11-28T14:05:27.583Z,23.25
2018-11-28T14:07:55.922Z,20.62
2018-11-28T14:10:24.211Z,21.95
2018-11-28T14:12:52.725Z,20.50
2018-11-28T14:15:22.892Z,20.30
2018-11-28T14:17:59.320Z,14.50
2018-11-28T14:20:27.672Z,36.28
2018-11-28T14:22:55.993Z,23.57
2018-11-28T14:25:24.382Z,22.58
2018-11-28T14:27:52.744Z,23.35
2018-11-28T14:30:25.193Z,18.60
2018-11-28T14:32:52.789Z,25.02
2018-11-28T14:35:22.244Z,20.50
2018-11-28T14:37:50.975Z,23.15
2018-11-28T14:40:21.428Z,31.25
2018-11-28T14:42:53.789Z,20.60
2018-11-28T14:45:22.262Z,20.90
2018-11-28T14:47:51.552Z,23.45
2018-11-28T14:50:21.557Z,21.48
2018-11-28T14:52:50.220Z,21.85
2018-11-28T14:55:20.588Z,23.12
2018-11-28T14:57:48.844Z,25.17
2018-11-28T15:00:22.791Z,21.50
2018-11-28T15:03:14.884Z,25.77
2018-11-28T15:07:53.080Z,18.65
2018-11-28T15:10:34.664Z,24.32
2018-11-28T15:13:03.050Z,22.42
2018-11-28T15:15:31.457Z,18.48
2018-11-28T15:17:59.856Z,30.85
2018-11-28T15:20:28.154Z,21.77
2018-11-28T15:22:56.591Z,16.73
2018-11-28T15:25:25.118Z,18.27
2018-11-28T15:27:53.446Z,18.60
2018-11-28T15:30:22.384Z,23.40
2018-11-28T15:32:51.363Z,17.02
2018-11-28T15:35:20.235Z,20.23
2018-11-28T15:37:48.947Z,22.58
2018-11-28T15:40:17.663Z,14.78
2018-11-28T15:42:46.255Z,17.02
2018-11-28T15:45:15.382Z,16.32
2018-11-28T15:47:44.132Z,17.77
2018-11-28T15:50:13.013Z,16.20
2018-11-28T15:52:42.768Z,22.40
2018-11-28T15:55:13.052Z,16.42
2018-11-28T15:57:42.011Z,19.77
2018-11-28T16:00:17.788Z,21.12
2018-11-28T16:02:46.652Z,20.60
2018-11-28T16:05:15.372Z,20.23
2018-11-28T16:07:44.640Z,19.35
2018-11-28T16:10:19.660Z,19.32
2018-11-28T16:12:49.016Z,22.87
2018-11-28T16:15:21.783Z,17.20
2018-11-28T16:17:50.533Z,26.93
2018-11-28T16:20:19.131Z,20.62
2018-11-28T16:22:48.123Z,19.48
2018-11-28T16:25:16.625Z,21.40
2018-11-28T16:27:45.219Z,21.15
2018-11-28T16:30:16.280Z,21.82
2018-11-28T16:32:46.010Z,19.82
2018-11-28T16:35:16.191Z,20.85
2018-11-28T16:37:45.106Z,23.60
2018-11-28T16:40:15.282Z,20.17
2018-11-28T16:42:44.202Z,21.25
2018-11-28T16:45:18.639Z,27.25
2018-11-28T16:47:47.492Z,23.50
2018-11-28T16:50:17.933Z,30.27
2018-11-28T16:52:47.023Z,25.43
2018-11-28T16:55:17.046Z,26.97
2018-11-28T16:57:54.201Z,29.02
2018-11-28T17:00:25.272Z,26.05
2018-11-28T17:02:54.881Z,22.58
2018-11-28T17:05:23.686Z,25.20
2018-11-28T17:07:53.160Z,24.45
2018-11-28T17:10:26.840Z,24.52
2018-11-28T17:12:56.618Z,31.73
2018-11-28T17:15:25.135Z,25.32
2018-11-28T17:17:53.498Z,21.35
2018-11-28T17:20:24.509Z,30.32
2018-11-28T17:22:54.771Z,28.47
2018-11-28T17:25:25.076Z,23.45
2018-11-28T17:27:53.557Z,30.75
2018-11-28T17:30:24.941Z,27.85
2018-11-28T17:32:53.374Z,25.32
2018-11-28T17:35:21.819Z,31.85
2018-11-28T17:37:50.730Z,22.40
2018-11-28T17:40:22.152Z,25.90
2018-11-28T17:42:53.957Z,24.47
2018-11-28T17:45:23.127Z,29.95
2018-11-28T17:47:51.866Z,29.00
2018-11-28T17:50:23.433Z,29.60
2018-11-28T17:53:16.240Z,30.90
2018-11-28T17:55:53.531Z,25.15
2018-11-28T17:58:22.070Z,27.93
2018-11-28T18:00:50.799Z,29.00
2018-11-28T18:03:20.230Z,29.32
2018-11-28T18:05:48.941Z,33.92
2018-11-28T18:08:17.936Z,24.60
2018-11-28T18:10:46.482Z,29.95
2018-11-28T18:13:16.891Z,28.47
2018-11-28T18:15:52.738Z,32.53
2018-11-28T18:18:27.705Z,33.10
2018-11-28T18:20:56.184Z,31.48
2018-11-28T18:23:24.737Z,26.75
2018-11-28T18:25:54.700Z,30.90
2018-11-28T18:28:23.605Z,32.88
2018-11-28T18:30:52.442Z,29.77
2018-11-28T18:33:21.789Z,32.85
2018-11-28T18:35:50.471Z,31.52
2018-11-28T18:38:19.440Z,32.45
2018-11-28T18:40:48.205Z,28.95
2018-11-28T18:43:16.817Z,35.85
2018-11-28T18:45:50.506Z,33.88
2018-11-28T18:48:19.897Z,32.58
2018-11-28T18:50:48.464Z,30.60
2018-11-28T18:53:17.224Z,31.87
2018-11-28T18:55:47.702Z,26.60
2018-11-28T18:58:16.578Z,27.65
2018-11-28T19:00:45.521Z,40.20
2018-11-28T19:03:14.786Z,35.20
2018-11-28T19:05:43.588Z,32.33
2018-11-28T19:11:05.902Z,34.80
2018-11-28T19:13:34.918Z,31.73
2018-11-28T19:16:03.975Z,31.70
2018-11-28T19:18:33.043Z,27.13
2018-11-28T19:21:01.807Z,28.83
2018-11-28T19:23:30.575Z,30.95
2018-11-28T19:26:01.335Z,33.23
2018-11-28T19:28:31.510Z,31.02
2018-11-28T19:31:00.330Z,32.20
2018-11-28T19:33:29.146Z,30.40
2018-11-28T19:35:59.013Z,25.17
2018-11-28T19:38:28.205Z,25.27
2018-11-28T19:41:02.420Z,34.63
2018-11-28T19:43:30.926Z,34.50
2018-11-28T19:45:59.983Z,29.77
2018-11-28T19:48:29.013Z,29.52
2018-11-28T19:50:58.749Z,27.90
2018-11-28T19:53:27.788Z,33.67
2018-11-28T19:55:56.427Z,28.02
2018-11-28T19:58:26.503Z,27.65
2018-11-28T20:00:55.487Z,28.98
2018-11-28T20:06:10.384Z,32.80
2018-11-28T20:08:39.385Z,35.25
2018-11-28T20:11:08.308Z,33.63
2018-11-28T20:13:37.170Z,27.52
2018-11-28T20:16:08.450Z,36.08
2018-11-28T20:32:25.330Z,37.48
2018-11-28T20:34:55.741Z,34.45
2018-11-28T20:37:25.108Z,31.55
2018-11-28T20:39:54.594Z,30.32
2018-11-28T20:42:24.486Z,35.10
2018-11-28T20:44:54.510Z,29.57
2018-11-28T20:47:23.411Z,36.15
2018-11-28T20:49:53.051Z,30.95
2018-11-28T20:52:22.457Z,36.50
2018-11-28T20:54:51.961Z,29.12
2018-11-28T20:57:24.710Z,45.12
2018-11-28T20:59:54.395Z,34.40
2018-11-28T21:02:51.579Z,30.23
2018-11-28T21:05:43.436Z,34.55
2018-11-28T21:08:12.503Z,29.48
2018-11-28T21:10:51.219Z,34.23
2018-11-28T21:13:24.071Z,33.65
2018-11-28T21:15:53.680Z,28.05
2018-11-28T21:18:22.775Z,30.12
2018-11-28T21:20:51.611Z,31.90
2018-11-28T21:23:22.961Z,29.85
2018-11-28T21:25:53.346Z,42.48
2018-11-28T21:34:01.566Z,38.17
2018-11-28T21:36:32.311Z,27.50
2018-11-28T21:39:02.045Z,30.43
2018-11-28T21:41:31.342Z,27.85
2018-11-28T21:44:00.001Z,27.55
2018-11-28T21:46:28.749Z,32.95
2018-11-28T21:48:57.419Z,31.07
2018-11-28T21:51:26.365Z,31.70
2018-11-28T21:53:55.009Z,25.00
2018-11-28T21:56:23.494Z,30.88
2018-11-28T21:58:52.140Z,25.02
2018-11-28T22:01:20.676Z,24.70
2018-11-28T22:03:49.269Z,31.27
2018-11-28T22:06:18.053Z,23.45
2018-11-28T22:08:47.070Z,27.25
2018-11-28T22:11:15.839Z,33.85
2018-11-28T22:13:44.508Z,28.45
2018-11-28T22:16:13.342Z,26.93
2018-11-28T22:18:44.780Z,32.88
2018-11-28T22:21:13.397Z,27.20
2018-11-28T22:23:42.099Z,24.52
2018-11-28T22:26:10.840Z,27.10
2018-11-28T22:28:39.646Z,26.07
2018-11-28T22:31:08.316Z,24.05
2018-11-28T22:33:36.804Z,27.82
2018-11-28T22:36:05.721Z,28.02
2018-11-28T22:38:34.770Z,29.12
2018-11-28T22:41:03.576Z,29.42
2018-11-28T22:43:31.993Z,28.70
2018-11-28T22:46:00.514Z,28.80
2018-11-28T22:48:35.792Z,27.65
2018-11-28T22:51:04.527Z,30.05
2018-11-28T22:53:33.119Z,30.37
2018-11-28T22:56:01.862Z,25.10
2018-11-28T22:58:30.663Z,24.82
2018-11-28T23:01:04.928Z,26.95
2018-11-28T23:03:33.476Z,25.35
2018-11-28T23:06:02.144Z,31.15
2018-11-28T23:08:30.613Z,24.35
2018-11-28T23:10:59.238Z,27.73
2018-11-28T23:13:27.698Z,25.60
2018-11-28T23:15:56.214Z,29.65
2018-11-28T23:18:24.793Z,20.95
2018-11-28T23:20:53.365Z,26.80
2018-11-28T23:23:21.808Z,29.57
2018-11-28T23:25:50.430Z,22.98
2018-11-28T23:28:19.084Z,24.60
2018-11-28T23:30:49.232Z,26.45
2018-11-28T23:33:19.541Z,23.05
2018-11-28T23:35:49.339Z,31.70
2018-11-28T23:38:18.635Z,28.15
2018-11-28T23:40:52.177Z,27.93
2018-11-28T23:43:20.900Z,26.77
2018-11-28T23:45:50.335Z,21.97
2018-11-28T23:48:19.308Z,28.17
2018-11-28T23:50:48.483Z,25.43
2018-11-28T23:53:17.447Z,24.27
2018-11-28T23:55:46.286Z,27.13
2018-11-28T23:58:15.717Z,26.48
